sensor_id;sensor_type;location;lat;lon;timestamp;P1;durP1;ratioP1;P2;durP2;ratioP2
4921;SDS011;16625;53.624;10.106;2022-12-29T00:01:50;5.70;;;4.40;;
4921;SDS011;16625;53.624;10.106;2022-12-29T00:04:19;7.50;;;4.93;;
4921;SDS011;16625;53.624;10.106;2022-12-29T00:06:46;7.90;;;4.10;;
4921;SDS011;16625;53.624;10.106;2022-12-29T00:09:15;5.77;;;4.30;;
4921;SDS011;16625;53.624;10.106;2022-12-29T00:11:45;7.20;;;4.50;;
4921;SDS011;16625;53.624;10.106;2022-12-29T00:14:18;5.50;;;4.20;;
4921;SDS011;16625;53.624;10.106;2022-12-29T00:17:03;4.97;;;4.33;;
4921;SDS011;16625;53.624;10.106;2022-12-29T00:19:31;16.93;;;4.60;;
4921;SDS011;16625;53.624;10.106;2022-12-29T00:22:15;4.60;;;3.83;;
4921;SDS011;16625;53.624;10.106;2022-12-29T00:25:00;5.13;;;4.50;;
4921;SDS011;16625;53.624;10.106;2022-12-29T00:27:45;6.47;;;4.20;;
4921;SDS011;16625;53.624;10.106;2022-12-29T00:30:33;4.97;;;3.60;;
4921;SDS011;16625;53.624;10.106;2022-12-29T00:33:34;5.37;;;4.87;;
4921;SDS011;16625;53.624;10.106;2022-12-29T00:36:19;7.83;;;4.90;;
4921;SDS011;16625;53.624;10.106;2022-12-29T00:38:51;12.60;;;5.33;;
4921;SDS011;16625;53.624;10.106;2022-12-29T00:41:39;6.07;;;4.53;;
4921;SDS011;16625;53.624;10.106;2022-12-29T00:44:24;7.23;;;5.70;;
4921;SDS011;16625;53.624;10.106;2022-12-29T00:46:53;7.70;;;5.17;;
4921;SDS011;16625;53.624;10.106;2022-12-29T00:49:27;7.07;;;4.80;;
4921;SDS011;16625;53.624;10.106;2022-12-29T00:51:57;5.53;;;4.47;;
4921;SDS011;16625;53.624;10.106;2022-12-29T00:54:27;7.40;;;5.43;;
4921;SDS011;16625;53.624;10.106;2022-12-29T00:56:55;6.13;;;5.33;;
4921;SDS011;16625;53.624;10.106;2022-12-29T00:59:23;6.43;;;5.00;;
4921;SDS011;16625;53.624;10.106;2022-12-29T01:01:54;8.20;;;5.60;;
4921;SDS011;16625;53.624;10.106;2022-12-29T01:04:22;7.93;;;5.73;;
4921;SDS011;16625;53.624;10.106;2022-12-29T01:06:51;7.67;;;6.10;;
4921;SDS011;16625;53.624;10.106;2022-12-29T01:09:19;6.73;;;5.83;;
4921;SDS011;16625;53.624;10.106;2022-12-29T01:12:04;10.90;;;5.40;;
4921;SDS011;16625;53.624;10.106;2022-12-29T01:14:32;5.87;;;5.27;;
4921;SDS011;16625;53.624;10.106;2022-12-29T01:17:01;6.03;;;5.33;;
4921;SDS011;16625;53.624;10.106;2022-12-29T01:19:28;6.10;;;5.13;;
4921;SDS011;16625;53.624;10.106;2022-12-29T01:21:56;4.80;;;4.40;;
4921;SDS011;16625;53.624;10.106;2022-12-29T01:24:23;8.17;;;5.90;;
4921;SDS011;16625;53.624;10.106;2022-12-29T01:26:51;5.77;;;4.83;;
4921;SDS011;16625;53.624;10.106;2022-12-29T01:29:20;4.83;;;4.33;;
4921;SDS011;16625;53.624;10.106;2022-12-29T01:31:47;5.20;;;4.70;;
4921;SDS011;16625;53.624;10.106;2022-12-29T01:34:16;6.57;;;4.83;;
4921;SDS011;16625;53.624;10.106;2022-12-29T01:36:44;7.00;;;5.47;;
4921;SDS011;16625;53.624;10.106;2022-12-29T01:39:11;6.00;;;5.30;;
4921;SDS011;16625;53.624;10.106;2022-12-29T01:41:38;7.10;;;4.80;;
4921;SDS011;16625;53.624;10.106;2022-12-29T01:47:14;10.67;;;5.00;;
4921;SDS011;16625;53.624;10.106;2022-12-29T01:50:04;7.47;;;5.10;;
4921;SDS011;16625;53.624;10.106;2022-12-29T01:52:35;5.40;;;4.90;;
4921;SDS011;16625;53.624;10.106;2022-12-29T01:55:05;6.13;;;4.67;;
4921;SDS011;16625;53.624;10.106;2022-12-29T01:57:35;6.10;;;4.60;;
4921;SDS011;16625;53.624;10.106;2022-12-29T02:00:05;9.73;;;5.73;;
4921;SDS011;16625;53.624;10.106;2022-12-29T02:02:34;6.90;;;5.10;;
4921;SDS011;16625;53.624;10.106;2022-12-29T02:05:05;6.47;;;4.37;;
4921;SDS011;16625;53.624;10.106;2022-12-29T02:07:37;9.60;;;5.30;;
4921;SDS011;16625;53.624;10.106;2022-12-29T02:10:05;11.40;;;6.83;;
4921;SDS011;16625;53.624;10.106;2022-12-29T02:12:33;6.93;;;5.43;;
4921;SDS011;16625;53.624;10.106;2022-12-29T02:15:02;7.83;;;5.07;;
4921;SDS011;16625;53.624;10.106;2022-12-29T02:17:41;6.47;;;5.60;;
4921;SDS011;16625;53.624;10.106;2022-12-29T02:23:33;6.80;;;6.00;;
4921;SDS011;16625;53.624;10.106;2022-12-29T02:26:27;6.73;;;5.60;;
4921;SDS011;16625;53.624;10.106;2022-12-29T02:35:27;9.53;;;5.17;;
4921;SDS011;16625;53.624;10.106;2022-12-29T02:38:05;8.10;;;5.50;;
4921;SDS011;16625;53.624;10.106;2022-12-29T02:40:42;7.57;;;5.43;;
4921;SDS011;16625;53.624;10.106;2022-12-29T02:43:48;5.40;;;4.83;;
4921;SDS011;16625;53.624;10.106;2022-12-29T02:56:50;8.07;;;5.70;;
4921;SDS011;16625;53.624;10.106;2022-12-29T02:59:18;5.57;;;4.97;;
4921;SDS011;16625;53.624;10.106;2022-12-29T03:01:52;5.90;;;4.97;;
4921;SDS011;16625;53.624;10.106;2022-12-29T03:07:43;6.90;;;4.93;;
4921;SDS011;16625;53.624;10.106;2022-12-29T03:10:19;7.83;;;5.13;;
4921;SDS011;16625;53.624;10.106;2022-12-29T03:12:56;7.63;;;4.73;;
4921;SDS011;16625;53.624;10.106;2022-12-29T03:15:46;5.83;;;5.03;;
4921;SDS011;16625;53.624;10.106;2022-12-29T03:18:32;5.47;;;4.50;;
4921;SDS011;16625;53.624;10.106;2022-12-29T03:21:08;13.27;;;4.60;;
4921;SDS011;16625;53.624;10.106;2022-12-29T03:23:39;5.70;;;4.43;;
4921;SDS011;16625;53.624;10.106;2022-12-29T03:26:10;7.73;;;5.10;;
4921;SDS011;16625;53.624;10.106;2022-12-29T03:28:41;7.27;;;4.43;;
4921;SDS011;16625;53.624;10.106;2022-12-29T03:31:14;5.37;;;4.40;;
4921;SDS011;16625;53.624;10.106;2022-12-29T03:33:43;8.90;;;5.47;;
4921;SDS011;16625;53.624;10.106;2022-12-29T03:36:14;7.70;;;4.90;;
4921;SDS011;16625;53.624;10.106;2022-12-29T03:38:46;5.70;;;5.10;;
4921;SDS011;16625;53.624;10.106;2022-12-29T03:41:17;6.23;;;4.73;;
4921;SDS011;16625;53.624;10.106;2022-12-29T03:43:48;7.17;;;4.80;;
4921;SDS011;16625;53.624;10.106;2022-12-29T03:46:15;6.43;;;5.00;;
4921;SDS011;16625;53.624;10.106;2022-12-29T03:48:43;8.57;;;5.27;;
4921;SDS011;16625;53.624;10.106;2022-12-29T03:51:11;7.37;;;4.80;;
4921;SDS011;16625;53.624;10.106;2022-12-29T03:53:40;7.07;;;5.13;;
4921;SDS011;16625;53.624;10.106;2022-12-29T03:56:07;5.10;;;4.33;;
4921;SDS011;16625;53.624;10.106;2022-12-29T03:58:34;5.60;;;4.80;;
4921;SDS011;16625;53.624;10.106;2022-12-29T04:01:02;6.40;;;4.40;;
4921;SDS011;16625;53.624;10.106;2022-12-29T04:03:29;4.60;;;4.00;;
4921;SDS011;16625;53.624;10.106;2022-12-29T04:05:56;5.87;;;4.60;;
4921;SDS011;16625;53.624;10.106;2022-12-29T04:08:25;8.23;;;4.03;;
4921;SDS011;16625;53.624;10.106;2022-12-29T04:10:53;4.90;;;3.73;;
4921;SDS011;16625;53.624;10.106;2022-12-29T04:13:21;6.60;;;4.03;;
4921;SDS011;16625;53.624;10.106;2022-12-29T04:15:49;4.73;;;3.80;;
4921;SDS011;16625;53.624;10.106;2022-12-29T04:18:18;5.60;;;4.00;;
4921;SDS011;16625;53.624;10.106;2022-12-29T04:20:45;6.83;;;3.63;;
4921;SDS011;16625;53.624;10.106;2022-12-29T04:23:29;4.23;;;3.83;;
4921;SDS011;16625;53.624;10.106;2022-12-29T04:25:56;6.83;;;3.50;;
4921;SDS011;16625;53.624;10.106;2022-12-29T04:28:24;3.73;;;3.33;;
4921;SDS011;16625;53.624;10.106;2022-12-29T04:30:52;4.13;;;3.30;;
4921;SDS011;16625;53.624;10.106;2022-12-29T04:33:21;4.40;;;3.33;;
4921;SDS011;16625;53.624;10.106;2022-12-29T04:35:49;3.57;;;3.23;;
4921;SDS011;16625;53.624;10.106;2022-12-29T04:38:32;7.67;;;3.60;;
4921;SDS011;16625;53.624;10.106;2022-12-29T04:40:59;3.00;;;2.60;;
4921;SDS011;16625;53.624;10.106;2022-12-29T04:43:27;3.93;;;3.23;;
4921;SDS011;16625;53.624;10.106;2022-12-29T04:45:54;4.00;;;3.30;;
4921;SDS011;16625;53.624;10.106;2022-12-29T04:48:22;5.50;;;2.70;;
4921;SDS011;16625;53.624;10.106;2022-12-29T04:54:12;5.83;;;3.43;;
4921;SDS011;16625;53.624;10.106;2022-12-29T04:56:39;8.20;;;3.03;;
4921;SDS011;16625;53.624;10.106;2022-12-29T04:59:06;4.30;;;3.00;;
4921;SDS011;16625;53.624;10.106;2022-12-29T05:04:10;4.70;;;2.57;;
4921;SDS011;16625;53.624;10.106;2022-12-29T05:06:37;4.07;;;3.20;;
4921;SDS011;16625;53.624;10.106;2022-12-29T05:09:03;2.77;;;2.57;;
4921;SDS011;16625;53.624;10.106;2022-12-29T05:11:30;3.27;;;2.80;;
4921;SDS011;16625;53.624;10.106;2022-12-29T05:14:05;5.43;;;3.63;;
4921;SDS011;16625;53.624;10.106;2022-12-29T05:16:32;2.97;;;2.53;;
4921;SDS011;16625;53.624;10.106;2022-12-29T05:18:59;3.40;;;2.90;;
4921;SDS011;16625;53.624;10.106;2022-12-29T05:21:28;3.10;;;2.80;;
4921;SDS011;16625;53.624;10.106;2022-12-29T05:23:55;3.03;;;2.77;;
4921;SDS011;16625;53.624;10.106;2022-12-29T05:26:22;3.53;;;3.23;;
4921;SDS011;16625;53.624;10.106;2022-12-29T05:28:49;3.30;;;2.70;;
4921;SDS011;16625;53.624;10.106;2022-12-29T05:31:19;3.00;;;2.70;;
4921;SDS011;16625;53.624;10.106;2022-12-29T05:33:46;6.07;;;3.13;;
4921;SDS011;16625;53.624;10.106;2022-12-29T05:36:13;5.87;;;2.97;;
4921;SDS011;16625;53.624;10.106;2022-12-29T05:38:42;5.80;;;3.47;;
4921;SDS011;16625;53.624;10.106;2022-12-29T05:41:09;4.63;;;2.87;;
4921;SDS011;16625;53.624;10.106;2022-12-29T05:43:36;4.70;;;3.50;;
4921;SDS011;16625;53.624;10.106;2022-12-29T05:46:03;3.50;;;2.83;;
4921;SDS011;16625;53.624;10.106;2022-12-29T05:48:29;4.17;;;3.70;;
4921;SDS011;16625;53.624;10.106;2022-12-29T05:50:56;4.03;;;2.90;;
4921;SDS011;16625;53.624;10.106;2022-12-29T05:53:23;4.03;;;3.20;;
4921;SDS011;16625;53.624;10.106;2022-12-29T05:55:56;2.97;;;2.60;;
4921;SDS011;16625;53.624;10.106;2022-12-29T05:58:23;3.43;;;3.00;;
4921;SDS011;16625;53.624;10.106;2022-12-29T06:00:50;3.03;;;2.73;;
4921;SDS011;16625;53.624;10.106;2022-12-29T06:03:17;5.17;;;3.40;;
4921;SDS011;16625;53.624;10.106;2022-12-29T06:05:45;3.97;;;3.33;;
4921;SDS011;16625;53.624;10.106;2022-12-29T06:08:13;5.40;;;3.23;;
4921;SDS011;16625;53.624;10.106;2022-12-29T06:10:42;3.83;;;3.37;;
4921;SDS011;16625;53.624;10.106;2022-12-29T06:13:10;5.80;;;2.97;;
4921;SDS011;16625;53.624;10.106;2022-12-29T06:15:40;3.83;;;3.00;;
4921;SDS011;16625;53.624;10.106;2022-12-29T06:18:08;3.37;;;2.77;;
4921;SDS011;16625;53.624;10.106;2022-12-29T06:20:38;5.33;;;3.10;;
4921;SDS011;16625;53.624;10.106;2022-12-29T06:23:05;4.93;;;2.70;;
4921;SDS011;16625;53.624;10.106;2022-12-29T06:25:32;3.33;;;3.03;;
4921;SDS011;16625;53.624;10.106;2022-12-29T06:28:01;3.63;;;3.33;;
4921;SDS011;16625;53.624;10.106;2022-12-29T06:30:31;4.10;;;2.90;;
4921;SDS011;16625;53.624;10.106;2022-12-29T06:32:58;5.80;;;3.13;;
4921;SDS011;16625;53.624;10.106;2022-12-29T06:35:26;3.17;;;2.70;;
4921;SDS011;16625;53.624;10.106;2022-12-29T06:37:52;4.13;;;2.80;;
4921;SDS011;16625;53.624;10.106;2022-12-29T06:46:40;3.10;;;2.57;;
4921;SDS011;16625;53.624;10.106;2022-12-29T06:49:07;2.80;;;2.60;;
4921;SDS011;16625;53.624;10.106;2022-12-29T06:51:34;5.33;;;3.10;;
4921;SDS011;16625;53.624;10.106;2022-12-29T06:54:01;2.50;;;2.20;;
4921;SDS011;16625;53.624;10.106;2022-12-29T06:56:28;2.80;;;2.60;;
4921;SDS011;16625;53.624;10.106;2022-12-29T06:58:55;3.37;;;2.53;;
4921;SDS011;16625;53.624;10.106;2022-12-29T07:01:22;2.73;;;2.17;;
4921;SDS011;16625;53.624;10.106;2022-12-29T07:03:51;5.97;;;2.90;;
4921;SDS011;16625;53.624;10.106;2022-12-29T07:06:19;2.00;;;1.80;;
4921;SDS011;16625;53.624;10.106;2022-12-29T07:08:48;3.83;;;2.30;;
4921;SDS011;16625;53.624;10.106;2022-12-29T07:11:16;2.63;;;2.40;;
4921;SDS011;16625;53.624;10.106;2022-12-29T07:13:44;4.07;;;2.90;;
4921;SDS011;16625;53.624;10.106;2022-12-29T07:16:11;3.67;;;2.50;;
4921;SDS011;16625;53.624;10.106;2022-12-29T07:18:38;3.40;;;2.90;;
4921;SDS011;16625;53.624;10.106;2022-12-29T07:21:07;3.00;;;2.70;;
4921;SDS011;16625;53.624;10.106;2022-12-29T07:23:35;3.37;;;3.00;;
4921;SDS011;16625;53.624;10.106;2022-12-29T07:26:03;3.27;;;3.00;;
4921;SDS011;16625;53.624;10.106;2022-12-29T07:28:35;4.17;;;2.83;;
4921;SDS011;16625;53.624;10.106;2022-12-29T07:31:04;3.17;;;2.57;;
4921;SDS011;16625;53.624;10.106;2022-12-29T07:33:33;2.83;;;2.53;;
4921;SDS011;16625;53.624;10.106;2022-12-29T07:36:03;4.20;;;2.67;;
4921;SDS011;16625;53.624;10.106;2022-12-29T07:38:34;7.63;;;2.43;;
4921;SDS011;16625;53.624;10.106;2022-12-29T07:41:01;3.03;;;2.70;;
4921;SDS011;16625;53.624;10.106;2022-12-29T07:43:31;3.80;;;3.30;;
4921;SDS011;16625;53.624;10.106;2022-12-29T07:45:58;3.20;;;2.90;;
4921;SDS011;16625;53.624;10.106;2022-12-29T07:48:26;4.13;;;3.27;;
4921;SDS011;16625;53.624;10.106;2022-12-29T07:56:48;6.93;;;4.80;;
4921;SDS011;16625;53.624;10.106;2022-12-29T08:02:33;5.53;;;3.60;;
4921;SDS011;16625;53.624;10.106;2022-12-29T08:09:19;2.17;;;1.97;;
4921;SDS011;16625;53.624;10.106;2022-12-29T08:11:53;3.47;;;3.17;;
4921;SDS011;16625;53.624;10.106;2022-12-29T08:14:20;4.17;;;3.10;;
4921;SDS011;16625;53.624;10.106;2022-12-29T08:16:50;3.43;;;3.03;;
4921;SDS011;16625;53.624;10.106;2022-12-29T08:19:18;5.03;;;3.60;;
4921;SDS011;16625;53.624;10.106;2022-12-29T08:21:54;4.70;;;2.63;;
4921;SDS011;16625;53.624;10.106;2022-12-29T08:24:26;4.33;;;2.60;;
4921;SDS011;16625;53.624;10.106;2022-12-29T08:27:16;3.97;;;2.43;;
4921;SDS011;16625;53.624;10.106;2022-12-29T08:30:06;3.60;;;2.67;;
4921;SDS011;16625;53.624;10.106;2022-12-29T08:32:52;2.60;;;2.40;;
4921;SDS011;16625;53.624;10.106;2022-12-29T08:35:22;4.10;;;3.23;;
4921;SDS011;16625;53.624;10.106;2022-12-29T08:37:50;4.07;;;3.23;;
4921;SDS011;16625;53.624;10.106;2022-12-29T08:40:20;8.40;;;2.80;;
4921;SDS011;16625;53.624;10.106;2022-12-29T08:42:50;2.97;;;2.70;;
4921;SDS011;16625;53.624;10.106;2022-12-29T08:45:20;2.93;;;2.30;;
4921;SDS011;16625;53.624;10.106;2022-12-29T08:47:53;4.80;;;3.70;;
4921;SDS011;16625;53.624;10.106;2022-12-29T08:50:23;4.07;;;3.13;;
4921;SDS011;16625;53.624;10.106;2022-12-29T08:53:00;3.80;;;3.40;;
4921;SDS011;16625;53.624;10.106;2022-12-29T08:55:33;5.83;;;3.27;;
4921;SDS011;16625;53.624;10.106;2022-12-29T08:58:33;5.13;;;3.00;;
4921;SDS011;16625;53.624;10.106;2022-12-29T09:00:59;5.53;;;3.00;;
4921;SDS011;16625;53.624;10.106;2022-12-29T09:03:26;3.83;;;2.53;;
4921;SDS011;16625;53.624;10.106;2022-12-29T09:05:58;3.13;;;2.83;;
4921;SDS011;16625;53.624;10.106;2022-12-29T09:08:26;4.43;;;2.13;;
4921;SDS011;16625;53.624;10.106;2022-12-29T09:11:04;7.90;;;2.80;;
4921;SDS011;16625;53.624;10.106;2022-12-29T09:13:45;9.37;;;2.73;;
4921;SDS011;16625;53.624;10.106;2022-12-29T09:16:12;3.83;;;2.23;;
4921;SDS011;16625;53.624;10.106;2022-12-29T09:18:54;6.77;;;2.73;;
4921;SDS011;16625;53.624;10.106;2022-12-29T09:21:22;4.53;;;2.10;;
4921;SDS011;16625;53.624;10.106;2022-12-29T09:23:52;3.07;;;2.40;;
4921;SDS011;16625;53.624;10.106;2022-12-29T09:26:28;3.80;;;2.60;;
4921;SDS011;16625;53.624;10.106;2022-12-29T09:29:04;3.67;;;2.20;;
4921;SDS011;16625;53.624;10.106;2022-12-29T09:31:33;7.23;;;2.00;;
4921;SDS011;16625;53.624;10.106;2022-12-29T09:34:01;4.90;;;1.80;;
4921;SDS011;16625;53.624;10.106;2022-12-29T09:36:30;2.70;;;2.30;;
4921;SDS011;16625;53.624;10.106;2022-12-29T09:39:07;7.50;;;1.90;;
4921;SDS011;16625;53.624;10.106;2022-12-29T09:41:35;3.50;;;2.13;;
4921;SDS011;16625;53.624;10.106;2022-12-29T09:44:08;4.07;;;2.03;;
4921;SDS011;16625;53.624;10.106;2022-12-29T09:46:43;9.27;;;2.33;;
4921;SDS011;16625;53.624;10.106;2022-12-29T09:49:16;2.43;;;2.00;;
4921;SDS011;16625;53.624;10.106;2022-12-29T09:51:55;3.33;;;2.17;;
4921;SDS011;16625;53.624;10.106;2022-12-29T09:54:33;3.10;;;1.60;;
4921;SDS011;16625;53.624;10.106;2022-12-29T09:57:08;4.27;;;2.43;;
4921;SDS011;16625;53.624;10.106;2022-12-29T09:59:45;11.47;;;2.27;;
4921;SDS011;16625;53.624;10.106;2022-12-29T10:02:23;9.20;;;2.60;;
4921;SDS011;16625;53.624;10.106;2022-12-29T10:04:57;5.17;;;1.80;;
4921;SDS011;16625;53.624;10.106;2022-12-29T10:07:28;4.53;;;2.10;;
4921;SDS011;16625;53.624;10.106;2022-12-29T10:12:59;6.30;;;2.50;;
4921;SDS011;16625;53.624;10.106;2022-12-29T10:15:38;7.30;;;2.07;;
4921;SDS011;16625;53.624;10.106;2022-12-29T10:18:20;4.07;;;2.30;;
4921;SDS011;16625;53.624;10.106;2022-12-29T10:21:08;6.80;;;3.50;;
4921;SDS011;16625;53.624;10.106;2022-12-29T10:23:46;13.53;;;3.40;;
4921;SDS011;16625;53.624;10.106;2022-12-29T10:26:18;6.93;;;2.97;;
4921;SDS011;16625;53.624;10.106;2022-12-29T10:28:54;4.07;;;2.00;;
4921;SDS011;16625;53.624;10.106;2022-12-29T10:31:33;8.40;;;2.87;;
4921;SDS011;16625;53.624;10.106;2022-12-29T10:34:10;8.53;;;1.60;;
4921;SDS011;16625;53.624;10.106;2022-12-29T10:36:46;2.63;;;1.90;;
4921;SDS011;16625;53.624;10.106;2022-12-29T10:39:16;3.33;;;1.93;;
4921;SDS011;16625;53.624;10.106;2022-12-29T10:41:49;4.23;;;2.07;;
4921;SDS011;16625;53.624;10.106;2022-12-29T10:44:21;3.07;;;2.27;;
4921;SDS011;16625;53.624;10.106;2022-12-29T10:46:56;6.77;;;2.00;;
4921;SDS011;16625;53.624;10.106;2022-12-29T10:49:29;2.83;;;2.00;;
4921;SDS011;16625;53.624;10.106;2022-12-29T10:51:58;7.33;;;2.13;;
4921;SDS011;16625;53.624;10.106;2022-12-29T10:54:29;6.80;;;2.33;;
4921;SDS011;16625;53.624;10.106;2022-12-29T10:57:03;5.03;;;2.53;;
4921;SDS011;16625;53.624;10.106;2022-12-29T10:59:35;12.63;;;2.63;;
4921;SDS011;16625;53.624;10.106;2022-12-29T11:05:10;4.60;;;2.00;;
4921;SDS011;16625;53.624;10.106;2022-12-29T11:07:46;7.23;;;1.60;;
4921;SDS011;16625;53.624;10.106;2022-12-29T11:10:18;5.83;;;2.33;;
4921;SDS011;16625;53.624;10.106;2022-12-29T11:12:57;6.30;;;2.40;;
4921;SDS011;16625;53.624;10.106;2022-12-29T11:15:27;5.23;;;2.20;;
4921;SDS011;16625;53.624;10.106;2022-12-29T11:18:19;16.13;;;2.27;;
4921;SDS011;16625;53.624;10.106;2022-12-29T11:20:48;6.30;;;2.30;;
4921;SDS011;16625;53.624;10.106;2022-12-29T11:23:23;6.53;;;2.37;;
4921;SDS011;16625;53.624;10.106;2022-12-29T11:26:05;7.40;;;2.43;;
4921;SDS011;16625;53.624;10.106;2022-12-29T11:28:44;6.57;;;2.17;;
4921;SDS011;16625;53.624;10.106;2022-12-29T11:31:15;6.80;;;2.27;;
4921;SDS011;16625;53.624;10.106;2022-12-29T11:33:44;7.83;;;3.73;;
4921;SDS011;16625;53.624;10.106;2022-12-29T11:36:12;5.27;;;2.03;;
4921;SDS011;16625;53.624;10.106;2022-12-29T11:38:42;7.53;;;2.17;;
4921;SDS011;16625;53.624;10.106;2022-12-29T11:41:18;4.13;;;2.80;;
4921;SDS011;16625;53.624;10.106;2022-12-29T11:43:48;6.20;;;1.50;;
4921;SDS011;16625;53.624;10.106;2022-12-29T11:46:16;8.43;;;2.80;;
4921;SDS011;16625;53.624;10.106;2022-12-29T11:48:47;5.50;;;2.43;;
4921;SDS011;16625;53.624;10.106;2022-12-29T11:51:20;4.00;;;2.20;;
4921;SDS011;16625;53.624;10.106;2022-12-29T11:53:53;4.80;;;2.27;;
4921;SDS011;16625;53.624;10.106;2022-12-29T11:56:32;4.10;;;2.20;;
4921;SDS011;16625;53.624;10.106;2022-12-29T12:02:03;6.10;;;2.20;;
4921;SDS011;16625;53.624;10.106;2022-12-29T12:04:53;5.40;;;1.50;;
4921;SDS011;16625;53.624;10.106;2022-12-29T12:07:29;3.00;;;2.20;;
4921;SDS011;16625;53.624;10.106;2022-12-29T12:10:05;3.80;;;2.10;;
4921;SDS011;16625;53.624;10.106;2022-12-29T12:12:41;4.23;;;1.87;;
4921;SDS011;16625;53.624;10.106;2022-12-29T12:15:15;5.10;;;2.10;;
4921;SDS011;16625;53.624;10.106;2022-12-29T12:17:47;9.70;;;1.70;;
4921;SDS011;16625;53.624;10.106;2022-12-29T12:20:20;5.60;;;2.73;;
4921;SDS011;16625;53.624;10.106;2022-12-29T12:22:53;2.40;;;1.77;;
4921;SDS011;16625;53.624;10.106;2022-12-29T12:25:28;5.60;;;2.03;;
4921;SDS011;16625;53.624;10.106;2022-12-29T12:28:00;4.30;;;2.17;;
4921;SDS011;16625;53.624;10.106;2022-12-29T12:30:36;7.53;;;2.20;;
4921;SDS011;16625;53.624;10.106;2022-12-29T12:33:10;3.10;;;1.57;;
4921;SDS011;16625;53.624;10.106;2022-12-29T12:35:46;6.60;;;1.90;;
4921;SDS011;16625;53.624;10.106;2022-12-29T12:38:25;7.43;;;2.10;;
4921;SDS011;16625;53.624;10.106;2022-12-29T12:41:00;4.40;;;1.70;;
4921;SDS011;16625;53.624;10.106;2022-12-29T12:43:40;7.20;;;2.33;;
4921;SDS011;16625;53.624;10.106;2022-12-29T12:51:58;8.63;;;2.20;;
4921;SDS011;16625;53.624;10.106;2022-12-29T12:54:39;6.60;;;2.00;;
4921;SDS011;16625;53.624;10.106;2022-12-29T12:57:21;7.60;;;2.23;;
4921;SDS011;16625;53.624;10.106;2022-12-29T12:59:56;11.33;;;2.57;;
4921;SDS011;16625;53.624;10.106;2022-12-29T13:02:30;7.77;;;2.43;;
4921;SDS011;16625;53.624;10.106;2022-12-29T13:05:20;8.93;;;3.00;;
4921;SDS011;16625;53.624;10.106;2022-12-29T13:08:02;8.43;;;2.60;;
4921;SDS011;16625;53.624;10.106;2022-12-29T13:10:50;4.00;;;1.93;;
4921;SDS011;16625;53.624;10.106;2022-12-29T13:13:29;4.50;;;2.27;;
4921;SDS011;16625;53.624;10.106;2022-12-29T13:16:05;4.37;;;2.23;;
4921;SDS011;16625;53.624;10.106;2022-12-29T13:18:43;9.27;;;2.37;;
4921;SDS011;16625;53.624;10.106;2022-12-29T13:21:20;5.50;;;2.23;;
4921;SDS011;16625;53.624;10.106;2022-12-29T13:23:59;10.80;;;2.07;;
4921;SDS011;16625;53.624;10.106;2022-12-29T13:26:35;7.40;;;2.20;;
4921;SDS011;16625;53.624;10.106;2022-12-29T13:29:11;9.10;;;2.10;;
4921;SDS011;16625;53.624;10.106;2022-12-29T13:31:43;12.70;;;2.03;;
4921;SDS011;16625;53.624;10.106;2022-12-29T13:34:22;5.30;;;2.73;;
4921;SDS011;16625;53.624;10.106;2022-12-29T13:37:01;4.10;;;2.10;;
4921;SDS011;16625;53.624;10.106;2022-12-29T13:39:33;3.80;;;2.00;;
4921;SDS011;16625;53.624;10.106;2022-12-29T13:42:02;8.20;;;2.47;;
4921;SDS011;16625;53.624;10.106;2022-12-29T13:44:32;5.33;;;2.20;;
4921;SDS011;16625;53.624;10.106;2022-12-29T13:47:02;4.70;;;2.60;;
4921;SDS011;16625;53.624;10.106;2022-12-29T13:49:42;7.40;;;2.37;;
4921;SDS011;16625;53.624;10.106;2022-12-29T13:52:11;5.13;;;2.03;;
4921;SDS011;16625;53.624;10.106;2022-12-29T13:54:45;4.13;;;2.80;;
4921;SDS011;16625;53.624;10.106;2022-12-29T13:57:25;13.67;;;3.33;;
4921;SDS011;16625;53.624;10.106;2022-12-29T14:00:03;6.30;;;2.40;;
4921;SDS011;16625;53.624;10.106;2022-12-29T14:02:37;5.13;;;2.33;;
4921;SDS011;16625;53.624;10.106;2022-12-29T14:05:27;3.30;;;2.20;;
4921;SDS011;16625;53.624;10.106;2022-12-29T14:07:57;20.47;;;3.13;;
4921;SDS011;16625;53.624;10.106;2022-12-29T14:10:46;4.17;;;2.23;;
4921;SDS011;16625;53.624;10.106;2022-12-29T14:13:15;5.70;;;2.17;;
4921;SDS011;16625;53.624;10.106;2022-12-29T14:15:45;2.30;;;2.10;;
4921;SDS011;16625;53.624;10.106;2022-12-29T14:18:21;7.43;;;2.40;;
4921;SDS011;16625;53.624;10.106;2022-12-29T14:20:51;4.97;;;2.20;;
4921;SDS011;16625;53.624;10.106;2022-12-29T14:23:28;6.57;;;2.83;;
4921;SDS011;16625;53.624;10.106;2022-12-29T14:26:13;7.60;;;1.80;;
4921;SDS011;16625;53.624;10.106;2022-12-29T14:28:43;5.37;;;1.80;;
4921;SDS011;16625;53.624;10.106;2022-12-29T14:31:34;8.27;;;2.33;;
4921;SDS011;16625;53.624;10.106;2022-12-29T14:36:57;3.47;;;2.10;;
4921;SDS011;16625;53.624;10.106;2022-12-29T14:39:28;18.20;;;2.30;;
4921;SDS011;16625;53.624;10.106;2022-12-29T14:42:03;13.70;;;1.87;;
4921;SDS011;16625;53.624;10.106;2022-12-29T14:44:32;6.73;;;2.43;;
4921;SDS011;16625;53.624;10.106;2022-12-29T14:47:01;4.37;;;2.03;;
4921;SDS011;16625;53.624;10.106;2022-12-29T14:49:31;4.13;;;2.30;;
4921;SDS011;16625;53.624;10.106;2022-12-29T14:52:13;3.70;;;2.13;;
4921;SDS011;16625;53.624;10.106;2022-12-29T14:54:47;7.93;;;2.73;;
4921;SDS011;16625;53.624;10.106;2022-12-29T14:57:21;10.43;;;2.03;;
4921;SDS011;16625;53.624;10.106;2022-12-29T14:59:52;8.93;;;2.37;;
4921;SDS011;16625;53.624;10.106;2022-12-29T15:02:22;7.43;;;2.23;;
4921;SDS011;16625;53.624;10.106;2022-12-29T15:04:52;7.30;;;2.10;;
4921;SDS011;16625;53.624;10.106;2022-12-29T15:07:24;4.50;;;2.47;;
4921;SDS011;16625;53.624;10.106;2022-12-29T15:09:54;8.10;;;2.47;;
4921;SDS011;16625;53.624;10.106;2022-12-29T15:15:22;8.03;;;2.97;;
4921;SDS011;16625;53.624;10.106;2022-12-29T15:17:51;4.40;;;2.50;;
4921;SDS011;16625;53.624;10.106;2022-12-29T15:20:23;5.53;;;2.33;;
4921;SDS011;16625;53.624;10.106;2022-12-29T15:22:53;9.43;;;2.40;;
4921;SDS011;16625;53.624;10.106;2022-12-29T15:25:22;4.60;;;2.33;;
4921;SDS011;16625;53.624;10.106;2022-12-29T15:27:51;10.70;;;3.30;;
4921;SDS011;16625;53.624;10.106;2022-12-29T15:30:22;7.77;;;2.63;;
4921;SDS011;16625;53.624;10.106;2022-12-29T15:32:49;10.83;;;3.60;;
4921;SDS011;16625;53.624;10.106;2022-12-29T15:35:28;6.23;;;2.30;;
4921;SDS011;16625;53.624;10.106;2022-12-29T15:37:57;5.47;;;3.10;;
4921;SDS011;16625;53.624;10.106;2022-12-29T15:40:29;8.97;;;3.27;;
4921;SDS011;16625;53.624;10.106;2022-12-29T15:43:08;5.37;;;3.40;;
4921;SDS011;16625;53.624;10.106;2022-12-29T15:45:50;13.10;;;3.67;;
4921;SDS011;16625;53.624;10.106;2022-12-29T15:48:31;11.87;;;2.97;;
4921;SDS011;16625;53.624;10.106;2022-12-29T15:50:59;6.97;;;2.90;;
4921;SDS011;16625;53.624;10.106;2022-12-29T15:53:27;7.53;;;2.80;;
4921;SDS011;16625;53.624;10.106;2022-12-29T15:55:59;9.87;;;3.00;;
4921;SDS011;16625;53.624;10.106;2022-12-29T15:58:40;9.60;;;3.23;;
4921;SDS011;16625;53.624;10.106;2022-12-29T16:01:15;5.67;;;2.70;;
4921;SDS011;16625;53.624;10.106;2022-12-29T16:03:44;12.00;;;3.50;;
4921;SDS011;16625;53.624;10.106;2022-12-29T16:06:24;6.73;;;3.10;;
4921;SDS011;16625;53.624;10.106;2022-12-29T16:11:41;7.70;;;3.40;;
4921;SDS011;16625;53.624;10.106;2022-12-29T16:14:31;7.53;;;3.47;;
4921;SDS011;16625;53.624;10.106;2022-12-29T16:17:16;12.00;;;4.90;;
4921;SDS011;16625;53.624;10.106;2022-12-29T16:19:49;14.00;;;4.50;;
4921;SDS011;16625;53.624;10.106;2022-12-29T16:22:20;14.33;;;3.60;;
4921;SDS011;16625;53.624;10.106;2022-12-29T16:24:55;10.73;;;4.90;;
4921;SDS011;16625;53.624;10.106;2022-12-29T16:27:25;11.57;;;3.90;;
4921;SDS011;16625;53.624;10.106;2022-12-29T16:30:03;7.73;;;5.00;;
4921;SDS011;16625;53.624;10.106;2022-12-29T16:32:31;15.70;;;5.10;;
4921;SDS011;16625;53.624;10.106;2022-12-29T16:35:09;7.73;;;3.00;;